createdAt,value
2023-05-16T00:03:26.006Z,100962.06
2023-05-16T00:08:27.712Z,100960.84
2023-05-16T00:13:29.756Z,100970.03
2023-05-16T00:18:31.369Z,100965.00
2023-05-16T00:23:33.296Z,100962.25
2023-05-16T00:28:34.789Z,100956.91
2023-05-16T00:33:36.420Z,100959.09
2023-05-16T00:38:37.985Z,100963.56
2023-05-16T00:43:40.284Z,100968.31
2023-05-16T00:48:42.003Z,100955.34
2023-05-16T00:53:43.836Z,100953.09
2023-05-16T00:58:45.521Z,100959.34
2023-05-16T01:03:47.988Z,100949.41
2023-05-16T01:08:49.807Z,100954.78
2023-05-16T01:14:17.069Z,100958.75
2023-05-16T01:19:24.596Z,100958.94
2023-05-16T01:24:58.828Z,100966.63
2023-05-16T01:30:01.154Z,100970.50
2023-05-16T01:35:02.717Z,100972.41
2023-05-16T01:40:07.451Z,100971.34
2023-05-16T01:45:15.480Z,100974.06
2023-05-16T01:50:21.056Z,100988.38
2023-05-16T01:55:46.032Z,100988.09
2023-05-16T02:00:47.624Z,100985.53
2023-05-16T02:05:49.113Z,100998.72
2023-05-16T02:10:50.652Z,101014.41
2023-05-16T02:15:52.220Z,101006.84
2023-05-16T02:20:53.968Z,101013.06
2023-05-16T02:25:55.593Z,101009.91
2023-05-16T02:30:58.714Z,101024.94
2023-05-16T02:36:00.276Z,101031.00
2023-05-16T02:41:02.030Z,101035.25
2023-05-16T02:46:30.407Z,101045.53
2023-05-16T02:51:32.029Z,101056.59
2023-05-16T02:56:33.537Z,101068.13
2023-05-16T03:01:35.062Z,101067.88
2023-05-16T03:06:36.616Z,101077.81
2023-05-16T03:11:38.164Z,101079.16
2023-05-16T03:16:40.146Z,101072.22
2023-05-16T03:21:42.026Z,101088.78
2023-05-16T03:26:43.763Z,101095.63
2023-05-16T03:31:45.434Z,101101.53
2023-05-16T03:36:51.017Z,101095.81
2023-05-16T03:41:52.500Z,101096.47
2023-05-16T03:46:54.440Z,101114.97
2023-05-16T03:51:55.971Z,101123.16
2023-05-16T03:56:57.550Z,101132.69
2023-05-16T04:01:59.066Z,101125.09
2023-05-16T04:07:02.115Z,101138.09
2023-05-16T04:12:03.834Z,101146.13
2023-05-16T04:17:05.441Z,101156.94
2023-05-16T04:22:07.074Z,101148.94
2023-05-16T04:27:08.632Z,101161.22
2023-05-16T04:32:10.135Z,101162.91
2023-05-16T04:37:11.630Z,101177.94
2023-05-16T04:42:13.149Z,101177.28
2023-05-16T04:47:14.680Z,101182.81
2023-05-16T04:52:16.228Z,101191.97
2023-05-16T04:57:17.803Z,101198.72
2023-05-16T05:02:19.335Z,101218.84
2023-05-16T05:07:20.876Z,101220.16
2023-05-16T05:12:22.692Z,101225.91
2023-05-16T05:17:24.355Z,101235.56
2023-05-16T05:22:26.006Z,101249.16
2023-05-16T05:27:27.577Z,101244.41
2023-05-16T05:32:29.298Z,101257.31
2023-05-16T05:37:30.805Z,101264.88
2023-05-16T05:42:33.015Z,101275.50
2023-05-16T05:47:34.728Z,101281.56
2023-05-16T05:52:36.698Z,101292.16
2023-05-16T05:57:38.317Z,101284.09
2023-05-16T06:02:39.989Z,101299.34
2023-05-16T06:07:41.661Z,101306.06
2023-05-16T06:12:43.158Z,101311.22
2023-05-16T06:17:44.746Z,101327.88
2023-05-16T06:22:47.778Z,101327.47
2023-05-16T06:27:49.298Z,101334.44
2023-05-16T06:32:50.852Z,101327.16
2023-05-16T06:37:52.337Z,101319.91
2023-05-16T06:42:53.891Z,101333.00
2023-05-16T06:47:57.502Z,101332.09
2023-05-16T06:52:59.287Z,101340.44
2023-05-16T06:58:00.894Z,101351.03
2023-05-16T07:03:03.087Z,101353.63
2023-05-16T07:08:07.580Z,101359.19
2023-05-16T07:13:09.563Z,101365.31
2023-05-16T07:18:11.202Z,101362.06
2023-05-16T07:23:12.917Z,101356.25
2023-05-16T07:28:14.447Z,101363.47
2023-05-16T07:33:16.055Z,101362.34
2023-05-16T07:38:17.618Z,101366.16
2023-05-16T07:43:19.176Z,101381.41
2023-05-16T07:48:20.764Z,101375.81
2023-05-16T07:53:22.408Z,101374.88
2023-05-16T07:58:24.015Z,101386.28
2023-05-16T08:03:25.995Z,101380.59
2023-05-16T08:08:27.721Z,101378.00
2023-05-16T08:13:29.647Z,101379.19
2023-05-16T08:18:31.395Z,101377.13
2023-05-16T08:23:33.529Z,101388.31
2023-05-16T08:28:35.054Z,101382.81
2023-05-16T08:33:36.635Z,101389.28
2023-05-16T08:38:38.172Z,101394.06
2023-05-16T08:43:39.854Z,101396.41
2023-05-16T08:48:45.967Z,101387.84
2023-05-16T08:54:11.222Z,101383.84
2023-05-16T08:59:13.430Z,101373.06
2023-05-16T09:04:16.350Z,101376.56
2023-05-16T09:09:18.089Z,101383.41
2023-05-16T09:14:19.641Z,101378.25
2023-05-16T09:19:23.241Z,101379.56
2023-05-16T09:24:25.980Z,101382.50
2023-05-16T09:29:27.540Z,101386.00
2023-05-16T09:34:29.132Z,101379.38
2023-05-16T09:39:30.676Z,101388.41
2023-05-16T09:44:32.336Z,101385.28
2023-05-16T09:49:34.041Z,101382.22
2023-05-16T09:54:35.797Z,101387.19
2023-05-16T09:59:38.715Z,101382.88
2023-05-16T10:04:40.387Z,101380.69
2023-05-16T10:09:43.713Z,101382.50
2023-05-16T10:14:46.841Z,101383.31
2023-05-16T10:19:49.197Z,101380.50
2023-05-16T10:25:06.462Z,101377.53
2023-05-16T10:30:09.761Z,101384.13
2023-05-16T10:35:11.693Z,101382.28
2023-05-16T10:40:13.462Z,101373.31
2023-05-16T10:45:18.530Z,101374.19
2023-05-16T10:50:40.300Z,101370.19
2023-05-16T10:56:06.491Z,101385.53
2023-05-16T11:01:35.597Z,101378.94
2023-05-16T11:06:43.221Z,101382.38
2023-05-16T11:11:49.453Z,101378.88
2023-05-16T11:16:53.363Z,101380.13
2023-05-16T11:22:07.985Z,101387.13
2023-05-16T11:27:14.173Z,101374.00
2023-05-16T11:32:19.635Z,101372.91
2023-05-16T11:37:21.205Z,101369.31
2023-05-16T11:42:22.787Z,101376.38
2023-05-16T11:47:24.679Z,101377.56
2023-05-16T11:52:26.353Z,101384.03
2023-05-16T11:57:27.996Z,101387.66
2023-05-16T12:02:29.635Z,101379.78
2023-05-16T12:07:31.361Z,101377.78
2023-05-16T12:12:33.181Z,101378.75
2023-05-16T12:17:36.460Z,101386.38
2023-05-16T12:22:44.699Z,101392.13
2023-05-16T12:27:46.701Z,101383.25
2023-05-16T12:32:53.511Z,101386.50
2023-05-16T12:37:55.237Z,101389.25
2023-05-16T12:42:57.593Z,101378.81
2023-05-16T12:48:05.223Z,101384.53
2023-05-16T12:53:12.162Z,101383.81
2023-05-16T12:58:13.881Z,101382.81
2023-05-16T13:03:15.652Z,101379.59
2023-05-16T13:08:17.282Z,101377.91
2023-05-16T13:13:28.765Z,101386.47
2023-05-16T13:18:37.001Z,101392.31
2023-05-16T13:23:38.677Z,101402.66
2023-05-16T13:28:40.316Z,101400.25
2023-05-16T13:33:41.906Z,101397.09
2023-05-16T13:38:43.569Z,101412.38
2023-05-16T13:43:45.341Z,101402.03
2023-05-16T13:48:46.891Z,101391.91
2023-05-16T13:53:48.640Z,101400.13
2023-05-16T13:59:02.153Z,101394.28
2023-05-16T14:04:05.824Z,101401.19
2023-05-16T14:09:07.449Z,101390.78
2023-05-16T14:14:38.134Z,101397.31
2023-05-16T14:19:39.681Z,101396.84
2023-05-16T14:24:41.344Z,101379.28
2023-05-16T14:29:43.179Z,101378.00
2023-05-16T14:34:44.804Z,101380.94
2023-05-16T14:39:47.239Z,101375.88
2023-05-16T14:44:48.873Z,101373.44
2023-05-16T14:49:50.618Z,101382.97
2023-05-16T14:54:52.232Z,101379.09
2023-05-16T14:59:53.790Z,101375.69
2023-05-16T15:04:55.345Z,101382.56
2023-05-16T15:09:56.952Z,101392.31
2023-05-16T15:14:58.501Z,101386.16
2023-05-16T15:20:00.097Z,101392.56
2023-05-16T15:25:02.009Z,101401.31
2023-05-16T15:30:04.106Z,101398.03
2023-05-16T15:35:06.245Z,101396.91
2023-05-16T15:40:08.457Z,101404.28
2023-05-16T15:45:11.700Z,101417.13
2023-05-16T15:50:13.791Z,101414.69
2023-05-16T15:55:15.438Z,101414.97
2023-05-16T16:00:17.457Z,101418.16
2023-05-16T16:05:19.073Z,101426.84
2023-05-16T16:10:22.553Z,101432.91
2023-05-16T16:15:24.264Z,101430.72
2023-05-16T16:20:26.186Z,101446.56
2023-05-16T16:25:27.985Z,101433.69
2023-05-16T16:30:29.869Z,101437.38
2023-05-16T16:35:31.503Z,101431.84
2023-05-16T16:40:33.188Z,101443.59
2023-05-16T16:45:34.733Z,101454.75
2023-05-16T16:50:36.489Z,101455.78
2023-05-16T16:55:40.596Z,101457.69
2023-05-16T17:00:42.676Z,101461.41
2023-05-16T17:05:44.423Z,101459.19
2023-05-16T17:10:46.049Z,101469.34
2023-05-16T17:15:47.705Z,101469.81
2023-05-16T17:20:49.234Z,101474.47
2023-05-16T17:25:50.816Z,101488.25
2023-05-16T17:30:52.407Z,101487.22
2023-05-16T17:35:53.956Z,101498.81
2023-05-16T17:40:55.520Z,101498.72
2023-05-16T17:45:57.205Z,101498.03
2023-05-16T17:50:59.129Z,101504.84
2023-05-16T17:56:00.686Z,101503.97
2023-05-16T18:01:02.952Z,101497.91
2023-05-16T18:06:04.883Z,101503.34
2023-05-16T18:11:06.613Z,101515.56
2023-05-16T18:16:08.194Z,101512.25
2023-05-16T18:21:10.007Z,101531.91
2023-05-16T18:26:11.696Z,101524.09
2023-05-16T18:31:13.375Z,101533.34
2023-05-16T18:36:15.168Z,101536.53
2023-05-16T18:41:16.902Z,101527.16
2023-05-16T18:46:18.867Z,101535.09
2023-05-16T18:51:20.473Z,101537.13
2023-05-16T18:56:22.172Z,101547.28
2023-05-16T19:01:23.943Z,101546.47
2023-05-16T19:06:25.675Z,101550.22
2023-05-16T19:11:27.386Z,101547.97
2023-05-16T19:16:29.096Z,101556.44
2023-05-16T19:21:31.797Z,101566.03
2023-05-16T19:26:33.485Z,101565.78
2023-05-16T19:31:35.164Z,101571.16
2023-05-16T19:36:36.786Z,101575.25
2023-05-16T19:41:38.482Z,101576.63
2023-05-16T19:46:40.108Z,101581.72
2023-05-16T19:51:42.386Z,101583.28
2023-05-16T19:56:44.305Z,101588.31
2023-05-16T20:01:46.048Z,101581.41
2023-05-16T20:06:47.647Z,101593.88
2023-05-16T20:11:49.324Z,101594.56
2023-05-16T20:16:50.956Z,101589.75
2023-05-16T20:21:52.737Z,101599.13
2023-05-16T20:26:54.338Z,101604.94
2023-05-16T20:31:56.102Z,101605.41
2023-05-16T20:36:58.142Z,101601.94
2023-05-16T20:41:59.814Z,101602.13
2023-05-16T20:47:01.491Z,101611.47
2023-05-16T20:52:03.847Z,101615.28
2023-05-16T20:57:05.664Z,101616.00
2023-05-16T21:02:07.493Z,101621.19
2023-05-16T21:07:09.097Z,101623.66
2023-05-16T21:12:10.685Z,101622.22
2023-05-16T21:17:12.337Z,101620.91
2023-05-16T21:22:14.084Z,101620.91
2023-05-16T21:27:15.733Z,101615.16
2023-05-16T21:32:17.403Z,101615.47
2023-05-16T21:37:19.042Z,101620.41
2023-05-16T21:42:20.659Z,101617.38
2023-05-16T21:47:22.401Z,101621.66
2023-05-16T21:52:24.124Z,101627.44
2023-05-16T21:57:25.786Z,101624.06
2023-05-16T22:02:27.367Z,101623.16
2023-05-16T22:07:29.178Z,101630.84
2023-05-16T22:12:30.813Z,101629.22
2023-05-16T22:17:32.555Z,101626.94
2023-05-16T22:22:34.259Z,101632.88
2023-05-16T22:27:35.808Z,101630.09
2023-05-16T22:32:37.515Z,101636.84
2023-05-16T22:37:39.274Z,101642.22
2023-05-16T22:42:40.830Z,101640.56
2023-05-16T22:47:42.444Z,101639.09
2023-05-16T22:52:44.186Z,101645.97
2023-05-16T22:57:45.772Z,101651.38
2023-05-16T23:02:47.634Z,101650.88
2023-05-16T23:07:49.261Z,101652.81
2023-05-16T23:12:50.850Z,101655.09
2023-05-16T23:17:52.516Z,101664.84
2023-05-16T23:22:54.173Z,101661.34
2023-05-16T23:27:55.698Z,101670.81
2023-05-16T23:32:57.343Z,101677.75
2023-05-16T23:37:58.947Z,101676.97
2023-05-16T23:43:00.681Z,101682.56
2023-05-16T23:48:02.349Z,101691.44
2023-05-16T23:53:04.131Z,101689.53
2023-05-16T23:58:05.698Z,101700.56
